Time;durP1;ratioP1;P1;durP2;ratioP2;P2;SDS_P1;SDS_P2;PMS_P1;PMS_P2;Temp;Humidity;BMP_temperature;BMP_pressure;BME280_temperature;BME280_humidity;BME280_pressure;Samples;Min_cycle;Max_cycle;Signal;HPM_P1;HPM_P2
2021/09/05 00:02:12;;;;;;;;;;;;;;;20.79;52.59;102085.28;5080735;28;19932;-86
2021/09/05 00:04:38;;;;;;;;;;;;;;;21.21;50.90;102084.09;5080164;28;20007;-86
2021/09/05 00:07:03;;;;;;;;;;;;;;;20.10;54.05;102075.38;5080479;28;19938;-86
2021/09/05 00:09:28;;;;;;;;;;;;;;;21.15;51.18;102079.03;5080415;28;20381;-87
2021/09/05 00:11:53;;;;;;;;;;;;;;;21.03;51.59;102077.16;5082129;28;19917;-87
2021/09/05 00:14:19;;;;;;;;;;;;;;;20.11;54.44;102073.50;5084180;28;19916;-86
2021/09/05 00:16:45;;;;;;;;;;;;;;;20.31;54.10;102075.75;5083830;28;19939;-87
2021/09/05 00:19:10;;;;;;;;;;;;;;;19.90;55.09;102073.09;5084982;28;20031;-85
2021/09/05 00:21:35;;;;;;;;;;;;;;;20.80;52.20;102074.19;5084043;28;19972;-86
2021/09/05 00:24:01;;;;;;;;;;;;;;;20.94;51.69;102075.06;5084433;28;19916;-86
2021/09/05 00:26:28;;;;;;;;;;;;;;;21.23;50.79;102079.34;5083852;28;19913;-85
2021/09/05 00:28:53;;;;;;;;;;;;;;;21.31;50.08;102083.41;5082708;28;19923;-86
2021/09/05 00:31:18;;;;;;;;;;;;;;;20.51;53.18;102073.47;5083285;28;19916;-85
2021/09/05 00:33:44;;;;;;;;;;;;;;;21.43;49.92;102080.59;5084304;28;19983;-86
2021/09/05 00:36:10;;;;;;;;;;;;;;;21.41;49.68;102076.22;5082398;28;20336;-87
2021/09/05 00:38:35;;;;;;;;;;;;;;;21.14;50.25;102080.03;5078847;28;19983;-87
2021/09/05 00:41:01;;;;;;;;;;;;;;;21.10;50.95;102078.47;5078595;28;20380;-86
2021/09/05 00:43:26;;;;;;;;;;;;;;;20.46;52.50;102081.19;5078139;28;19916;-86
2021/09/05 00:45:51;;;;;;;;;;;;;;;20.78;51.28;102078.06;5078566;28;19916;-86
2021/09/05 00:48:16;;;;;;;;;;;;;;;20.83;50.44;102073.09;5079380;28;19917;-87
2021/09/05 00:50:42;;;;;;;;;;;;;;;20.04;52.94;102084.03;5079770;28;20289;-86
2021/09/05 00:53:08;;;;;;;;;;;;;;;20.71;51.52;102073.00;5078704;28;19923;-86
2021/09/05 00:55:36;;;;;;;;;;;;;;;20.23;52.86;102080.00;5078381;28;19916;-86
2021/09/05 00:58:02;;;;;;;;;;;;;;;20.76;51.74;102075.41;5079425;28;20361;-85
2021/09/05 01:00:27;;;;;;;;;;;;;;;20.00;53.21;102076.97;5081124;28;19959;-86
2021/09/05 01:02:53;;;;;;;;;;;;;;;20.25;52.13;102078.06;5100220;28;19984;-85
2021/09/05 01:05:18;;;;;;;;;;;;;;;20.53;52.19;102075.16;5081181;28;19916;-86
2021/09/05 01:07:44;;;;;;;;;;;;;;;19.71;54.66;102088.03;5082431;28;19974;-86
2021/09/05 01:10:11;;;;;;;;;;;;;;;20.13;52.94;102077.91;5081047;28;19924;-86
2021/09/05 01:12:36;;;;;;;;;;;;;;;20.05;53.16;102087.66;5082084;28;19941;-86
2021/09/05 01:15:01;;;;;;;;;;;;;;;20.15;53.75;102086.91;5082100;28;20127;-86
2021/09/05 01:17:27;;;;;;;;;;;;;;;20.34;52.60;102085.66;5081305;28;19926;-87
2021/09/05 01:19:52;;;;;;;;;;;;;;;20.52;52.17;102084.38;5082314;28;19916;-87
2021/09/05 01:22:23;;;;;;;;;;;;;;;20.42;52.46;102083.25;5099214;28;19942;-87
2021/09/05 01:24:48;;;;;;;;;;;;;;;20.62;51.76;102078.22;5098730;28;19916;-87
2021/09/05 01:27:13;;;;;;;;;;;;;;;21.10;49.84;102094.97;5081302;28;20292;-86
2021/09/05 01:29:39;;;;;;;;;;;;;;;20.60;51.48;102096.69;5100265;28;19908;-87
2021/09/05 01:32:04;;;;;;;;;;;;;;;20.53;51.23;102090.75;5100882;28;19916;-86
2021/09/05 01:34:29;;;;;;;;;;;;;;;20.32;51.67;102087.63;5080069;28;20277;-86
2021/09/05 01:36:54;;;;;;;;;;;;;;;20.60;51.66;102089.31;5080672;28;19935;-85
2021/09/05 01:39:21;;;;;;;;;;;;;;;20.60;51.32;102085.72;5080875;28;19924;-86
2021/09/05 01:41:47;;;;;;;;;;;;;;;20.73;51.09;102086.63;5099146;28;19966;-87
2021/09/05 01:44:19;;;;;;;;;;;;;;;20.82;50.76;102090.56;5098713;28;19921;-86
2021/09/05 01:46:46;;;;;;;;;;;;;;;20.56;51.31;102090.53;5080834;28;19916;-86
2021/09/05 01:49:11;;;;;;;;;;;;;;;20.87;50.69;102093.91;5080848;28;19904;-86
2021/09/05 01:51:36;;;;;;;;;;;;;;;20.40;51.90;102096.22;5098795;28;19922;-87
2021/09/05 01:54:02;;;;;;;;;;;;;;;20.62;51.24;102091.97;5079754;28;19981;-86
2021/09/05 01:56:31;;;;;;;;;;;;;;;19.51;54.50;102102.22;5098082;28;19945;-87
2021/09/05 01:58:57;;;;;;;;;;;;;;;19.82;53.51;102098.31;5098837;28;19971;-86
2021/09/05 02:01:23;;;;;;;;;;;;;;;20.30;52.88;102100.59;5098739;28;19924;-85
2021/09/05 02:03:48;;;;;;;;;;;;;;;19.61;54.28;102104.25;5081511;28;19985;-86
2021/09/05 02:06:13;;;;;;;;;;;;;;;20.45;51.23;102095.91;5079500;28;19923;-87
2021/09/05 02:08:38;;;;;;;;;;;;;;;20.61;51.02;102096.59;5080198;28;19922;-86
2021/09/05 02:11:04;;;;;;;;;;;;;;;20.89;50.36;102102.91;5081232;28;19916;-86
2021/09/05 02:13:29;;;;;;;;;;;;;;;20.60;50.32;102096.69;5079947;28;20370;-86
2021/09/05 02:15:55;;;;;;;;;;;;;;;20.77;50.62;102104.66;5081261;28;20395;-86
2021/09/05 02:18:20;;;;;;;;;;;;;;;21.21;48.87;102113.47;5081192;28;19923;-87
2021/09/05 02:20:45;;;;;;;;;;;;;;;21.50;47.63;102105.88;5098802;28;19980;-86
2021/09/05 02:23:10;;;;;;;;;;;;;;;20.21;51.33;102118.59;5098138;28;20042;-86
2021/09/05 02:25:35;;;;;;;;;;;;;;;21.35;48.16;102116.09;5080355;28;19916;-86
2021/09/05 02:28:01;;;;;;;;;;;;;;;20.21;51.33;102118.59;5080623;28;19964;-87
2021/09/05 02:30:26;;;;;;;;;;;;;;;20.78;50.17;102116.56;5098313;28;19924;-88
2021/09/05 02:32:52;;;;;;;;;;;;;;;19.07;55.04;102129.66;5100116;28;19926;-87
2021/09/05 02:35:17;;;;;;;;;;;;;;;19.73;52.64;102124.53;5081333;28;20365;-86
2021/09/05 02:37:42;;;;;;;;;;;;;;;20.11;51.84;102122.94;5098539;28;19966;-86
2021/09/05 02:40:08;;;;;;;;;;;;;;;20.23;51.49;102126.72;5080636;28;20029;-87
2021/09/05 02:42:34;;;;;;;;;;;;;;;19.79;53.38;102124.13;5096612;28;20370;-86
2021/09/05 02:45:01;;;;;;;;;;;;;;;20.74;50.07;102113.13;5079084;28;19916;-87
2021/09/05 02:47:26;;;;;;;;;;;;;;;19.73;53.02;102119.03;5079363;28;19931;-87
2021/09/05 02:49:51;;;;;;;;;;;;;;;20.53;50.93;102116.38;5098153;28;19943;-86
2021/09/05 02:52:17;;;;;;;;;;;;;;;20.90;49.41;102115.69;5079417;28;19916;-87
2021/09/05 02:54:42;;;;;;;;;;;;;;;21.03;48.63;102115.66;5098184;28;20437;-86
2021/09/05 02:57:08;;;;;;;;;;;;;;;21.55;47.05;102117.41;5098668;28;19922;-86
2021/09/05 02:59:33;;;;;;;;;;;;;;;21.32;47.64;102123.72;5098407;28;19908;-86
2021/09/05 03:01:59;;;;;;;;;;;;;;;21.30;47.51;102120.16;5080127;28;20014;-86
2021/09/05 03:04:24;;;;;;;;;;;;;;;21.11;48.17;102117.91;5079993;28;19916;-86
2021/09/05 03:06:49;;;;;;;;;;;;;;;20.46;49.48;102116.91;5097698;28;19916;-86
2021/09/05 03:09:14;;;;;;;;;;;;;;;20.91;48.46;102111.94;5080368;28;19924;-86
2021/09/05 03:11:40;;;;;;;;;;;;;;;20.41;49.42;102114.50;5097698;28;19916;-86
2021/09/05 03:14:05;;;;;;;;;;;;;;;20.30;49.83;102106.09;5080162;28;19916;-87
2021/09/05 03:16:30;;;;;;;;;;;;;;;19.70;51.70;102119.22;5097364;28;19916;-87
2021/09/05 03:18:55;;;;;;;;;;;;;;;19.16;53.79;102116.31;5079795;28;20009;-86
2021/09/05 03:21:20;;;;;;;;;;;;;;;19.59;52.39;102114.41;5096942;28;20019;-86
2021/09/05 03:23:46;;;;;;;;;;;;;;;19.09;53.63;102113.09;5079246;28;19927;-85
2021/09/05 03:26:11;;;;;;;;;;;;;;;20.03;50.99;102115.22;5079459;28;19938;-85
2021/09/05 03:28:36;;;;;;;;;;;;;;;19.27;52.60;102117.41;5079195;28;19916;-86
2021/09/05 03:31:01;;;;;;;;;;;;;;;19.11;53.77;102111.13;5079504;28;19920;-85
2021/09/05 03:33:26;;;;;;;;;;;;;;;18.32;56.65;102118.69;5097167;28;19897;-88
2021/09/05 03:35:52;;;;;;;;;;;;;;;18.63;55.60;102118.66;5080079;28;19943;-85
2021/09/05 03:38:17;;;;;;;;;;;;;;;18.84;55.74;102121.94;5077975;28;19912;-85
2021/09/05 03:40:42;;;;;;;;;;;;;;;19.55;52.51;102114.72;5080373;28;20022;-87
2021/09/05 03:43:07;;;;;;;;;;;;;;;19.25;52.67;102115.75;5079363;28;19916;-85
2021/09/05 03:45:33;;;;;;;;;;;;;;;19.13;52.67;102114.69;5079630;28;19934;-87
2021/09/05 03:47:58;;;;;;;;;;;;;;;19.38;52.50;102110.34;5101572;28;19916;-86
2021/09/05 03:50:23;;;;;;;;;;;;;;;19.62;51.87;102114.22;5084284;28;19904;-85
2021/09/05 03:52:49;;;;;;;;;;;;;;;19.65;51.60;102115.88;5082701;28;20376;-85
2021/09/05 03:55:14;;;;;;;;;;;;;;;19.34;52.15;102117.91;5100625;28;19924;-85
2021/09/05 03:57:39;;;;;;;;;;;;;;;18.98;52.66;102116.53;5082979;28;19970;-87
2021/09/05 04:00:05;;;;;;;;;;;;;;;20.09;49.94;102103.81;5078469;28;19927;-85
2021/09/05 04:02:30;;;;;;;;;;;;;;;19.14;52.62;102116.41;5078372;28;19920;-86
2021/09/05 04:04:55;;;;;;;;;;;;;;;18.79;54.94;102114.00;5078380;28;20386;-86
2021/09/05 04:07:20;;;;;;;;;;;;;;;18.37;55.22;102115.66;5078037;28;19912;-85
2021/09/05 04:12:30;;;;;;;;;;;;;;;18.03;57.16;102121.31;5079976;28;19938;-86
2021/09/05 04:14:55;;;;;;;;;;;;;;;19.49;53.08;102116.03;5078839;28;20365;-86
2021/09/05 04:17:20;;;;;;;;;;;;;;;19.43;52.62;102113.66;5077914;28;19916;-86
2021/09/05 04:19:45;;;;;;;;;;;;;;;19.07;53.48;102115.94;5079079;28;20274;-86
2021/09/05 04:22:11;;;;;;;;;;;;;;;18.91;54.22;102115.13;5078830;28;19927;-85
2021/09/05 04:24:36;;;;;;;;;;;;;;;18.44;55.67;102116.19;5078835;28;19917;-86
2021/09/05 04:27:01;;;;;;;;;;;;;;;19.76;51.20;102116.06;5079907;28;19920;-86
2021/09/05 04:29:27;;;;;;;;;;;;;;;19.04;54.20;102121.63;5080525;28;19921;-86
2021/09/05 04:31:52;;;;;;;;;;;;;;;19.81;51.35;102110.31;5079749;28;20003;-85
2021/09/05 04:34:17;;;;;;;;;;;;;;;18.82;53.64;102118.44;5077734;28;19989;-85
2021/09/05 04:36:42;;;;;;;;;;;;;;;18.87;54.01;102124.53;5079090;28;19987;-86
2021/09/05 04:39:08;;;;;;;;;;;;;;;18.64;54.65;102123.19;5078553;28;19970;-86
2021/09/05 04:41:33;;;;;;;;;;;;;;;18.58;54.90;102128.09;5079042;28;19923;-86
2021/09/05 04:43:58;;;;;;;;;;;;;;;18.49;55.72;102125.00;5078092;28;20011;-85
2021/09/05 04:46:25;;;;;;;;;;;;;;;18.16;55.66;102123.31;5078837;28;19917;-85
2021/09/05 04:48:50;;;;;;;;;;;;;;;18.85;53.87;102127.38;5078124;28;19927;-86
2021/09/05 04:51:16;;;;;;;;;;;;;;;18.00;56.68;102132.44;5077493;28;20376;-86
2021/09/05 04:53:41;;;;;;;;;;;;;;;19.12;53.03;102130.22;5079459;28;20277;-87
2021/09/05 04:56:07;;;;;;;;;;;;;;;19.21;51.73;102133.38;5078883;28;19920;-86
2021/09/05 04:58:32;;;;;;;;;;;;;;;19.70;50.10;102127.47;5017345;28;1831097;-86
2021/09/05 05:00:57;;;;;;;;;;;;;;;19.54;49.77;102135.81;5100877;28;19920;-87
2021/09/05 05:03:22;;;;;;;;;;;;;;;19.36;50.39;102137.88;5101059;28;20012;-86
2021/09/05 05:05:48;;;;;;;;;;;;;;;19.38;50.80;102132.28;5082296;28;19916;-86
2021/09/05 05:08:13;;;;;;;;;;;;;;;18.77;53.38;102136.03;5099637;28;19916;-88
2021/09/05 05:10:39;;;;;;;;;;;;;;;18.49;53.54;102136.84;5082137;28;19915;-87
2021/09/05 05:13:04;;;;;;;;;;;;;;;18.67;53.83;102145.78;5082065;28;20280;-87
2021/09/05 05:15:30;;;;;;;;;;;;;;;18.83;53.09;102142.13;5081666;28;20393;-86
2021/09/05 05:17:56;;;;;;;;;;;;;;;18.22;55.41;102148.50;5083818;28;20003;-87
2021/09/05 05:20:21;;;;;;;;;;;;;;;18.74;53.88;102147.19;5099532;28;20001;-87
2021/09/05 05:22:46;;;;;;;;;;;;;;;19.31;51.74;102151.03;5081501;28;20415;-87
2021/09/05 05:25:12;;;;;;;;;;;;;;;18.42;54.69;102151.91;5080602;28;19922;-86
2021/09/05 05:27:37;;;;;;;;;;;;;;;18.72;54.11;102148.25;5099589;28;19916;-87
2021/09/05 05:30:03;;;;;;;;;;;;;;;18.41;55.66;102156.47;5080405;28;19962;-87
2021/09/05 05:32:28;;;;;;;;;;;;;;;18.81;54.26;102157.78;5081666;28;19927;-87
2021/09/05 05:34:54;;;;;;;;;;;;;;;18.40;55.47;102157.47;5082089;28;20304;-87
2021/09/05 05:37:19;;;;;;;;;;;;;;;18.04;56.61;102157.78;5082542;28;19924;-86
2021/09/05 05:39:44;;;;;;;;;;;;;;;19.76;51.27;102164.59;5100549;28;19900;-85
2021/09/05 05:42:09;;;;;;;;;;;;;;;18.29;54.90;102162.69;5081328;28;19931;-87
2021/09/05 05:44:35;;;;;;;;;;;;;;;19.95;50.53;102159.69;5080781;28;19955;-86
2021/09/05 05:47:00;;;;;;;;;;;;;;;20.09;49.23;102157.88;5081012;28;20440;-87
2021/09/05 05:49:25;;;;;;;;;;;;;;;20.30;48.86;102161.94;5081394;28;20381;-86
2021/09/05 05:51:51;;;;;;;;;;;;;;;20.78;47.62;102160.56;5098641;28;19948;-87
2021/09/05 05:54:17;;;;;;;;;;;;;;;21.04;47.11;102161.47;5080707;28;19916;-86
2021/09/05 05:56:43;;;;;;;;;;;;;;;20.92;47.35;102167.84;5080774;28;19942;-86
2021/09/05 05:59:09;;;;;;;;;;;;;;;21.14;46.86;102161.69;5079710;28;19927;-88
2021/09/05 06:01:37;;;;;;;;;;;;;;;21.20;46.94;102169.50;5099133;28;19916;-86
2021/09/05 06:04:03;;;;;;;;;;;;;;;21.21;47.07;102174.91;5081913;28;20065;-86
2021/09/05 06:06:29;;;;;;;;;;;;;;;21.21;47.15;102172.16;5081840;28;19970;-86
2021/09/05 06:08:55;;;;;;;;;;;;;;;21.40;46.93;102176.31;5098609;28;20281;-86
2021/09/05 06:11:20;;;;;;;;;;;;;;;21.70;46.24;102177.88;5081350;28;20461;-87
2021/09/05 06:13:45;;;;;;;;;;;;;;;21.68;46.42;102179.84;5080965;28;20335;-86
2021/09/05 06:16:10;;;;;;;;;;;;;;;21.65;46.60;102174.56;5097218;28;20053;-86
2021/09/05 06:18:35;;;;;;;;;;;;;;;21.77;46.48;102181.94;5080270;28;20366;-87
2021/09/05 06:21:01;;;;;;;;;;;;;;;21.97;46.08;102177.69;5098454;28;19916;-88
2021/09/05 06:23:26;;;;;;;;;;;;;;;21.97;46.18;102187.81;5081433;28;19916;-87
2021/09/05 06:25:51;;;;;;;;;;;;;;;21.62;47.23;102183.03;5082310;28;19923;-87
2021/09/05 06:28:16;;;;;;;;;;;;;;;21.82;46.85;102190.72;5080896;28;19916;-86
2021/09/05 06:30:42;;;;;;;;;;;;;;;21.94;47.03;102189.81;5080146;28;19920;-85
2021/09/05 06:33:07;;;;;;;;;;;;;;;21.89;47.01;102189.28;5079947;28;20311;-86
2021/09/05 06:35:32;;;;;;;;;;;;;;;22.05;47.09;102190.88;5099197;28;19963;-86
2021/09/05 06:37:57;;;;;;;;;;;;;;;22.19;46.93;102187.09;5081038;28;19917;-88
2021/09/05 06:40:23;;;;;;;;;;;;;;;20.46;51.17;102194.75;5081001;28;19916;-87
2021/09/05 06:42:48;;;;;;;;;;;;;;;21.69;48.53;102203.66;5097733;28;19927;-88
2021/09/05 06:45:13;;;;;;;;;;;;;;;22.22;47.49;102204.28;5080335;28;19912;-86
2021/09/05 06:47:38;;;;;;;;;;;;;;;21.72;48.58;102206.16;5079427;28;20262;-86
2021/09/05 06:50:04;;;;;;;;;;;;;;;21.03;50.96;102203.72;5079008;28;19916;-88
2021/09/05 06:52:29;;;;;;;;;;;;;;;21.74;48.68;102204.16;5080612;28;19912;-89
2021/09/05 06:54:56;;;;;;;;;;;;;;;21.44;49.89;102205.41;5080709;28;20253;-87
2021/09/05 06:57:21;;;;;;;;;;;;;;;21.75;49.39;102212.31;5081000;28;19939;-87
2021/09/05 06:59:46;;;;;;;;;;;;;;;22.58;47.03;102216.28;5097848;28;19927;-87
2021/09/05 07:02:17;;;;;;;;;;;;;;;21.79;48.55;102209.38;5081528;28;20411;-86
2021/09/05 07:04:43;;;;;;;;;;;;;;;21.99;48.56;102213.41;5080520;28;19919;-88
2021/09/05 07:07:08;;;;;;;;;;;;;;;21.41;50.14;102220.25;5080830;28;19916;-88
2021/09/05 07:09:33;;;;;;;;;;;;;;;21.80;49.18;102220.28;5099487;28;19930;-87
2021/09/05 07:11:59;;;;;;;;;;;;;;;21.72;49.48;102219.94;5098083;28;20006;-87
2021/09/05 07:14:24;;;;;;;;;;;;;;;21.71;49.43;102223.69;5079649;28;19938;-86
2021/09/05 07:16:49;;;;;;;;;;;;;;;21.21;50.41;102224.44;5080617;28;19951;-89
2021/09/05 07:19:15;;;;;;;;;;;;;;;20.49;53.26;102227.53;5080660;28;19951;-87
2021/09/05 07:21:40;;;;;;;;;;;;;;;20.56;53.27;102222.50;5081276;28;20019;-87
2021/09/05 07:24:05;;;;;;;;;;;;;;;20.84;52.24;102223.41;5080859;28;19916;-87
2021/09/05 07:26:30;;;;;;;;;;;;;;;21.95;49.84;102218.22;5081192;28;19923;-87
2021/09/05 07:28:56;;;;;;;;;;;;;;;22.34;47.89;102224.53;5079582;28;19916;-86
2021/09/05 07:31:21;;;;;;;;;;;;;;;21.08;51.52;102223.56;5079586;28;19923;-87
2021/09/05 07:33:47;;;;;;;;;;;;;;;21.15;52.01;102227.63;5080222;28;19916;-89
2021/09/05 07:36:13;;;;;;;;;;;;;;;21.54;50.95;102223.06;5082033;28;19923;-88
2021/09/05 07:38:38;;;;;;;;;;;;;;;22.59;47.57;102223.56;5081092;28;20339;-88
2021/09/05 07:41:03;;;;;;;;;;;;;;;21.96;49.28;102222.75;5080711;28;19975;-85
2021/09/05 07:43:28;;;;;;;;;;;;;;;21.39;51.25;102219.50;5080193;28;19983;-87
2021/09/05 07:45:54;;;;;;;;;;;;;;;22.49;48.58;102233.53;5079516;28;20013;-87
2021/09/05 07:48:19;;;;;;;;;;;;;;;21.36;50.77;102238.09;5080083;28;20021;-89
2021/09/05 07:50:44;;;;;;;;;;;;;;;22.65;48.30;102236.88;5080140;28;20387;-84
2021/09/05 07:53:09;;;;;;;;;;;;;;;21.44;50.26;102230.19;5081283;28;20014;-88
2021/09/05 07:55:34;;;;;;;;;;;;;;;22.27;49.33;102234.25;5098241;28;19993;-88
2021/09/05 07:58:00;;;;;;;;;;;;;;;23.45;46.17;102245.44;5080030;28;19950;-88
2021/09/05 08:00:25;;;;;;;;;;;;;;;22.27;49.51;102240.66;5080761;28;20285;-89
2021/09/05 08:02:50;;;;;;;;;;;;;;;22.43;48.91;102245.03;5078837;28;20392;-86
2021/09/05 08:05:15;;;;;;;;;;;;;;;23.71;45.36;102244.19;5081520;28;19969;-86
2021/09/05 08:07:42;;;;;;;;;;;;;;;23.15;46.15;102250.50;5084321;28;19920;-90
2021/09/05 08:10:07;;;;;;;;;;;;;;;23.03;46.67;102253.34;5081924;28;19924;-90
2021/09/05 08:12:33;;;;;;;;;;;;;;;22.84;46.50;102252.00;5099890;28;19970;-86
2021/09/05 08:14:58;;;;;;;;;;;;;;;23.96;44.91;102253.28;5082590;28;19916;-88
2021/09/05 08:17:23;;;;;;;;;;;;;;;22.55;48.23;102254.25;5100648;28;19916;-85
2021/09/05 08:19:50;;;;;;;;;;;;;;;22.70;47.53;102253.06;5077334;28;19922;-85
2021/09/05 08:22:19;;;;;;;;;;;;;;;23.63;45.63;102259.66;5097262;28;19916;-85
2021/09/05 08:24:45;;;;;;;;;;;;;;;23.04;46.64;102249.56;5081915;28;19916;-89
2021/09/05 08:27:10;;;;;;;;;;;;;;;23.53;44.75;102257.63;5082314;28;20431;-86
2021/09/05 08:29:35;;;;;;;;;;;;;;;22.92;46.59;102257.81;5099122;28;19922;-87
2021/09/05 08:32:01;;;;;;;;;;;;;;;23.86;43.70;102255.03;5081543;28;19907;-87
2021/09/05 08:34:27;;;;;;;;;;;;;;;23.39;45.32;102257.00;5069559;28;19920;-87
2021/09/05 08:36:52;;;;;;;;;;;;;;;23.97;44.46;102259.69;5083928;28;20010;-82
2021/09/05 08:39:17;;;;;;;;;;;;;;;23.56;44.39;102258.38;5101123;28;19924;-83
2021/09/05 08:41:43;;;;;;;;;;;;;;;24.65;42.44;102254.91;5082069;28;19923;-90
2021/09/05 08:44:09;;;;;;;;;;;;;;;25.19;41.79;102257.72;5101707;28;20377;-87
2021/09/05 08:46:34;;;;;;;;;;;;;;;24.16;43.52;102265.44;5082642;28;19916;-87
2021/09/05 08:49:03;;;;;;;;;;;;;;;25.00;41.92;102272.28;5100440;28;19916;-88
2021/09/05 08:51:28;;;;;;;;;;;;;;;24.80;42.72;102265.69;5081981;28;20269;-85
2021/09/05 08:53:54;;;;;;;;;;;;;;;24.52;42.79;102268.03;5083498;28;19920;-84
2021/09/05 08:56:19;;;;;;;;;;;;;;;23.14;45.80;102272.72;5083066;28;19920;-82
2021/09/05 08:58:44;;;;;;;;;;;;;;;24.88;41.16;102269.56;5100330;28;19920;-84
2021/09/05 09:01:17;;;;;;;;;;;;;;;24.41;42.58;102268.91;5081641;28;19916;-82
2021/09/05 09:03:42;;;;;;;;;;;;;;;26.00;39.40;102274.59;5077640;28;20409;-85
2021/09/05 09:06:08;;;;;;;;;;;;;;;24.84;41.84;102275.50;5068035;28;19920;-86
2021/09/05 09:08:33;;;;;;;;;;;;;;;23.45;44.69;102285.00;5062471;28;19943;-85
2021/09/05 09:11:01;;;;;;;;;;;;;;;24.59;42.06;102275.72;5078819;28;19920;-86
2021/09/05 09:13:31;;;;;;;;;;;;;;;23.52;44.49;102279.84;5060955;28;19962;-86
2021/09/05 09:15:57;;;;;;;;;;;;;;;24.72;41.73;102278.31;5075080;28;19916;-85
2021/09/05 09:18:29;;;;;;;;;;;;;;;25.52;39.69;102277.94;5116765;28;19998;-86
2021/09/05 09:20:56;;;;;;;;;;;;;;;26.99;37.13;102277.41;5097758;28;20424;-90
2021/09/05 09:23:23;;;;;;;;;;;;;;;27.31;36.77;102276.25;5079796;28;20756;-87
2021/09/05 09:26:00;;;;;;;;;;;;;;;25.82;38.84;102274.31;5080146;28;19956;-88
2021/09/05 09:28:28;;;;;;;;;;;;;;;26.01;39.16;102270.75;5079721;28;19982;-86
2021/09/05 09:30:56;;;;;;;;;;;;;;;25.94;39.21;102269.56;5079487;28;19916;-84
2021/09/05 09:33:25;;;;;;;;;;;;;;;25.23;40.91;102279.47;5093326;28;20756;-82
2021/09/05 09:35:52;;;;;;;;;;;;;;;26.24;39.21;102271.44;5057400;28;19967;-87
2021/09/05 09:38:17;;;;;;;;;;;;;;;26.31;38.55;102266.19;5059015;28;19919;-87
2021/09/05 09:40:42;;;;;;;;;;;;;;;26.18;38.70;102272.03;5079497;28;19920;-86
2021/09/05 09:43:20;;;;;;;;;;;;;;;27.38;36.46;102262.66;5080269;28;20494;-86
2021/09/05 09:45:46;;;;;;;;;;;;;;;26.92;36.86;102261.47;5099541;28;19923;-81
2021/09/05 09:48:20;;;;;;;;;;;;;;;26.49;37.51;102267.25;5077535;28;19919;-82
2021/09/05 09:50:45;;;;;;;;;;;;;;;25.72;38.26;102248.44;5097099;28;19924;-83
2021/09/05 09:53:11;;;;;;;;;;;;;;;25.42;39.61;102264.88;5079222;28;19989;-82
2021/09/05 09:55:37;;;;;;;;;;;;;;;24.59;40.01;102260.97;5098391;28;19916;-83
2021/09/05 09:58:02;;;;;;;;;;;;;;;25.87;38.02;102258.13;5080714;28;19984;-82
2021/09/05 10:00:27;;;;;;;;;;;;;;;25.68;38.38;102258.03;5080886;28;19951;-82
2021/09/05 10:02:53;;;;;;;;;;;;;;;26.70;36.17;102260.75;5078509;28;20384;-84
2021/09/05 10:05:20;;;;;;;;;;;;;;;26.69;36.92;102261.75;5095714;28;20797;-83
2021/09/05 10:07:45;;;;;;;;;;;;;;;27.24;35.26;102250.94;5077452;28;19985;-83
2021/09/05 10:10:12;;;;;;;;;;;;;;;27.26;34.81;102255.47;5094693;28;20373;-84
2021/09/05 10:12:38;;;;;;;;;;;;;;;27.83;34.71;102256.38;5095589;28;19916;-84
2021/09/05 10:15:03;;;;;;;;;;;;;;;27.48;35.71;102257.94;5098023;28;20047;-80
2021/09/05 10:17:29;;;;;;;;;;;;;;;26.68;37.17;102265.59;5095277;28;19916;-86
2021/09/05 10:19:55;;;;;;;;;;;;;;;26.34;38.38;102268.69;5070871;28;20030;-89
2021/09/05 10:22:23;;;;;;;;;;;;;;;27.38;36.29;102265.44;5082029;28;19920;-85
2021/09/05 10:24:49;;;;;;;;;;;;;;;28.20;34.55;102263.84;5097582;28;19922;-80
2021/09/05 10:27:14;;;;;;;;;;;;;;;27.64;35.53;102262.00;5098340;28;20392;-86
2021/09/05 10:29:59;;;;;;;;;;;;;;;27.05;36.48;102264.84;5080073;28;19916;-84
2021/09/05 10:32:40;;;;;;;;;;;;;;;27.77;34.78;102259.75;5079835;28;19912;-90
2021/09/05 10:35:25;;;;;;;;;;;;;;;28.26;34.01;102266.00;5079419;28;20407;-86
2021/09/05 10:37:50;;;;;;;;;;;;;;;28.61;32.88;102263.44;5077079;28;19952;-81
2021/09/05 10:40:15;;;;;;;;;;;;;;;27.68;35.18;102260.66;5096499;28;19970;-82
2021/09/05 10:42:59;;;;;;;;;;;;;;;28.39;33.87;102261.97;5096395;28;19923;-81
2021/09/05 10:45:25;;;;;;;;;;;;;;;28.83;32.85;102259.34;5097550;28;19916;-84
2021/09/05 10:47:50;;;;;;;;;;;;;;;28.68;33.25;102259.00;5078707;28;19917;-83
2021/09/05 10:50:32;;;;;;;;;;;;;;;27.80;34.61;102270.56;5076608;28;19955;-81
2021/09/05 10:53:12;;;;;;;;;;;;;;;26.98;34.98;102270.13;5076420;28;19917;-82
2021/09/05 10:55:56;;;;;;;;;;;;;;;27.08;34.63;102270.09;5059090;28;19921;-83
2021/09/05 10:58:33;;;;;;;;;;;;;;;28.10;33.38;102266.66;5076242;28;19916;-82
2021/09/05 11:01:03;;;;;;;;;;;;;;;28.77;32.78;102257.19;5058345;28;20350;-78
2021/09/05 11:03:28;;;;;;;;;;;;;;;29.65;30.46;102261.91;5076969;28;20006;-85
2021/09/05 11:06:13;;;;;;;;;;;;;;;29.75;30.33;102251.53;5096108;28;20415;-83
2021/09/05 11:08:39;;;;;;;;;;;;;;;29.12;31.37;102255.41;5077219;28;20373;-85
2021/09/05 11:11:04;;;;;;;;;;;;;;;29.17;31.71;102253.03;5095267;28;20305;-82
2021/09/05 11:13:55;;;;;;;;;;;;;;;29.75;29.86;102245.94;5095630;28;19925;-86
2021/09/05 11:16:20;;;;;;;;;;;;;;;28.34;32.52;102255.97;5090530;28;20317;-82
2021/09/05 11:18:46;;;;;;;;;;;;;;;29.38;31.23;102246.22;5095962;28;19916;-83
2021/09/05 11:21:21;;;;;;;;;;;;;;;29.99;29.78;102242.44;5077857;28;19927;-83
2021/09/05 11:23:47;;;;;;;;;;;;;;;30.06;29.84;102242.66;5077945;28;19924;-83
2021/09/05 11:26:12;;;;;;;;;;;;;;;29.92;29.67;102240.47;5095304;28;19935;-83
2021/09/05 11:28:38;;;;;;;;;;;;;;;28.57;31.87;102246.16;5075805;28;19916;-83
2021/09/05 11:31:03;;;;;;;;;;;;;;;28.45;31.67;102242.72;5089743;28;19951;-83
2021/09/05 11:33:29;;;;;;;;;;;;;;;29.77;28.79;102232.69;5074688;28;19921;-82
2021/09/05 11:35:54;;;;;;;;;;;;;;;30.17;28.98;102247.03;5076300;28;19942;-83
2021/09/05 11:38:20;;;;;;;;;;;;;;;29.37;30.08;102238.91;5076704;28;19916;-82
2021/09/05 11:40:47;;;;;;;;;;;;;;;28.79;30.27;102241.19;5077823;28;19942;-81
2021/09/05 11:43:13;;;;;;;;;;;;;;;30.15;28.45;102243.53;5077419;28;19927;-83
2021/09/05 11:45:38;;;;;;;;;;;;;;;30.29;29.20;102248.47;5094440;28;19916;-79
2021/09/05 11:48:06;;;;;;;;;;;;;;;29.07;30.96;102246.66;5077568;28;19954;-83
2021/09/05 11:50:35;;;;;;;;;;;;;;;29.84;29.68;102232.94;5078599;28;20023;-85
2021/09/05 11:53:00;;;;;;;;;;;;;;;29.82;30.29;102235.91;5095656;28;19920;-82
2021/09/05 11:55:26;;;;;;;;;;;;;;;30.87;29.38;102245.81;5077946;28;20416;-80
2021/09/05 11:57:58;;;;;;;;;;;;;;;31.15;28.46;102239.91;5094917;28;19916;-81
2021/09/05 12:00:25;;;;;;;;;;;;;;;30.89;28.23;102244.63;5089278;28;19963;-83
2021/09/05 12:02:50;;;;;;;;;;;;;;;29.55;30.71;102236.03;5056519;28;19927;-82
2021/09/05 12:05:16;;;;;;;;;;;;;;;30.66;28.92;102244.41;5073789;28;19935;-80
2021/09/05 12:07:42;;;;;;;;;;;;;;;30.22;29.15;102250.19;5076258;28;20015;-82
2021/09/05 12:10:11;;;;;;;;;;;;;;;30.11;29.92;102244.94;5061464;28;20297;-82
2021/09/05 12:12:38;;;;;;;;;;;;;;;31.87;27.71;102244.69;5079658;28;19954;-81
2021/09/05 12:15:17;;;;;;;;;;;;;;;30.54;28.65;102246.66;5078964;28;20385;-83
2021/09/05 12:17:43;;;;;;;;;;;;;;;30.13;28.10;102240.91;5060303;28;19920;-82
2021/09/05 12:20:09;;;;;;;;;;;;;;;29.10;31.26;102247.22;5060333;28;20320;-81
2021/09/05 12:22:39;;;;;;;;;;;;;;;31.38;27.64;102243.75;5078070;28;19916;-82
2021/09/05 12:25:10;;;;;;;;;;;;;;;31.23;27.77;102239.91;5059939;28;19961;-82
2021/09/05 12:27:35;;;;;;;;;;;;;;;31.51;27.22;102239.50;5060136;28;20061;-82
2021/09/05 12:30:19;;;;;;;;;;;;;;;31.33;27.59;102235.00;5059431;28;19952;-83
2021/09/05 12:33:01;;;;;;;;;;;;;;;30.65;28.53;102241.78;5059499;28;19923;-82
2021/09/05 12:35:27;;;;;;;;;;;;;;;31.96;26.51;102236.09;5078212;28;19922;-81